sensor_id;sensor_type;location;lat;lon;timestamp;temperature;humidity
19106;DHT22;9685;54.338;18.672;2023-08-21T00:00:11;22.70;1.00
19106;DHT22;9685;54.338;18.672;2023-08-21T00:02:38;22.60;1.00
19106;DHT22;9685;54.338;18.672;2023-08-21T00:05:06;22.60;1.00
19106;DHT22;9685;54.338;18.672;2023-08-21T00:07:33;22.60;1.00
19106;DHT22;9685;54.338;18.672;2023-08-21T00:10:01;22.60;1.00
19106;DHT22;9685;54.338;18.672;2023-08-21T00:12:28;22.60;1.00
19106;DHT22;9685;54.338;18.672;2023-08-21T00:14:55;22.60;1.00
19106;DHT22;9685;54.338;18.672;2023-08-21T00:17:22;22.60;1.00
19106;DHT22;9685;54.338;18.672;2023-08-21T00:19:49;22.50;1.00
19106;DHT22;9685;54.338;18.672;2023-08-21T00:22:16;22.50;1.00
19106;DHT22;9685;54.338;18.672;2023-08-21T00:24:43;22.40;1.00
19106;DHT22;9685;54.338;18.672;2023-08-21T00:27:11;22.20;1.00
19106;DHT22;9685;54.338;18.672;2023-08-21T00:29:38;22.10;1.00
19106;DHT22;9685;54.338;18.672;2023-08-21T00:32:05;22.20;1.00
19106;DHT22;9685;54.338;18.672;2023-08-21T00:34:32;22.10;1.00
19106;DHT22;9685;54.338;18.672;2023-08-21T00:36:59;22.00;1.00
19106;DHT22;9685;54.338;18.672;2023-08-21T00:39:26;22.00;1.00
19106;DHT22;9685;54.338;18.672;2023-08-21T00:41:53;22.00;99.90
19106;DHT22;9685;54.338;18.672;2023-08-21T00:44:22;22.00;99.90
19106;DHT22;9685;54.338;18.672;2023-08-21T00:46:49;22.00;99.90
19106;DHT22;9685;54.338;18.672;2023-08-21T00:49:16;22.00;99.90
19106;DHT22;9685;54.338;18.672;2023-08-21T00:51:44;22.00;99.90
19106;DHT22;9685;54.338;18.672;2023-08-21T00:54:11;21.80;99.90
19106;DHT22;9685;54.338;18.672;2023-08-21T00:56:38;21.90;99.90
19106;DHT22;9685;54.338;18.672;2023-08-21T00:59:05;21.90;99.90
19106;DHT22;9685;54.338;18.672;2023-08-21T01:01:34;21.90;99.90
19106;DHT22;9685;54.338;18.672;2023-08-21T01:04:02;21.90;99.90
19106;DHT22;9685;54.338;18.672;2023-08-21T01:06:29;21.90;99.90
19106;DHT22;9685;54.338;18.672;2023-08-21T01:08:59;21.80;99.90
19106;DHT22;9685;54.338;18.672;2023-08-21T01:11:31;21.70;99.90
19106;DHT22;9685;54.338;18.672;2023-08-21T01:14:06;21.70;99.90
19106;DHT22;9685;54.338;18.672;2023-08-21T01:16:38;21.70;99.90
19106;DHT22;9685;54.338;18.672;2023-08-21T01:19:10;21.60;99.90
19106;DHT22;9685;54.338;18.672;2023-08-21T01:21:39;21.60;99.90
19106;DHT22;9685;54.338;18.672;2023-08-21T01:24:07;21.50;99.90
19106;DHT22;9685;54.338;18.672;2023-08-21T01:26:34;21.40;99.90
19106;DHT22;9685;54.338;18.672;2023-08-21T01:29:01;21.50;99.90
19106;DHT22;9685;54.338;18.672;2023-08-21T01:31:31;21.40;99.90
19106;DHT22;9685;54.338;18.672;2023-08-21T01:34:04;21.50;99.90
19106;DHT22;9685;54.338;18.672;2023-08-21T01:36:31;21.50;99.90
19106;DHT22;9685;54.338;18.672;2023-08-21T01:38:59;21.40;99.90
19106;DHT22;9685;54.338;18.672;2023-08-21T01:41:27;21.30;99.90
19106;DHT22;9685;54.338;18.672;2023-08-21T01:43:54;21.20;99.90
19106;DHT22;9685;54.338;18.672;2023-08-21T01:46:21;21.20;99.90
19106;DHT22;9685;54.338;18.672;2023-08-21T01:48:48;21.20;99.90
19106;DHT22;9685;54.338;18.672;2023-08-21T01:51:15;21.20;99.90
19106;DHT22;9685;54.338;18.672;2023-08-21T01:53:42;21.20;99.90
19106;DHT22;9685;54.338;18.672;2023-08-21T01:56:09;21.20;99.90
19106;DHT22;9685;54.338;18.672;2023-08-21T01:58:37;21.20;99.90
19106;DHT22;9685;54.338;18.672;2023-08-21T02:01:04;21.20;99.90
19106;DHT22;9685;54.338;18.672;2023-08-21T02:03:31;21.10;1.00
19106;DHT22;9685;54.338;18.672;2023-08-21T02:05:58;21.00;1.00
19106;DHT22;9685;54.338;18.672;2023-08-21T02:08:30;21.00;1.00
19106;DHT22;9685;54.338;18.672;2023-08-21T02:10:57;21.00;1.00
19106;DHT22;9685;54.338;18.672;2023-08-21T02:13:24;20.90;1.00
19106;DHT22;9685;54.338;18.672;2023-08-21T02:15:52;20.80;1.00
19106;DHT22;9685;54.338;18.672;2023-08-21T02:18:19;20.80;1.00
19106;DHT22;9685;54.338;18.672;2023-08-21T02:20:47;20.80;1.00
19106;DHT22;9685;54.338;18.672;2023-08-21T02:23:15;20.70;1.00
19106;DHT22;9685;54.338;18.672;2023-08-21T02:25:42;20.70;1.00
19106;DHT22;9685;54.338;18.672;2023-08-21T02:28:09;20.60;1.00
19106;DHT22;9685;54.338;18.672;2023-08-21T02:30:39;20.50;1.00
19106;DHT22;9685;54.338;18.672;2023-08-21T02:33:07;20.50;1.00
19106;DHT22;9685;54.338;18.672;2023-08-21T02:35:34;20.50;1.00
19106;DHT22;9685;54.338;18.672;2023-08-21T02:38:02;20.40;1.00
19106;DHT22;9685;54.338;18.672;2023-08-21T02:40:29;20.40;1.00
19106;DHT22;9685;54.338;18.672;2023-08-21T02:42:56;20.40;1.00
19106;DHT22;9685;54.338;18.672;2023-08-21T02:45:23;20.30;1.00
19106;DHT22;9685;54.338;18.672;2023-08-21T02:47:50;20.30;1.00
19106;DHT22;9685;54.338;18.672;2023-08-21T02:50:18;20.20;1.00
19106;DHT22;9685;54.338;18.672;2023-08-21T02:52:45;20.10;1.00
19106;DHT22;9685;54.338;18.672;2023-08-21T02:55:12;19.90;1.00
19106;DHT22;9685;54.338;18.672;2023-08-21T02:57:39;19.90;1.00
19106;DHT22;9685;54.338;18.672;2023-08-21T03:00:07;19.90;1.00
19106;DHT22;9685;54.338;18.672;2023-08-21T03:02:34;19.90;1.00
19106;DHT22;9685;54.338;18.672;2023-08-21T03:05:01;19.80;1.00
19106;DHT22;9685;54.338;18.672;2023-08-21T03:07:30;19.70;1.00
19106;DHT22;9685;54.338;18.672;2023-08-21T03:09:57;19.80;1.00
19106;DHT22;9685;54.338;18.672;2023-08-21T03:12:23;19.70;1.00
19106;DHT22;9685;54.338;18.672;2023-08-21T03:14:50;19.70;1.00
19106;DHT22;9685;54.338;18.672;2023-08-21T03:17:17;19.70;99.90
19106;DHT22;9685;54.338;18.672;2023-08-21T03:19:44;19.60;99.90
19106;DHT22;9685;54.338;18.672;2023-08-21T03:22:11;19.60;99.90
19106;DHT22;9685;54.338;18.672;2023-08-21T03:24:40;19.60;99.90
19106;DHT22;9685;54.338;18.672;2023-08-21T03:27:07;19.50;99.90
19106;DHT22;9685;54.338;18.672;2023-08-21T03:29:34;19.50;99.90
19106;DHT22;9685;54.338;18.672;2023-08-21T03:32:01;19.40;99.90
19106;DHT22;9685;54.338;18.672;2023-08-21T03:34:28;19.40;99.90
19106;DHT22;9685;54.338;18.672;2023-08-21T03:36:55;19.40;99.90
19106;DHT22;9685;54.338;18.672;2023-08-21T03:39:22;19.30;99.90
19106;DHT22;9685;54.338;18.672;2023-08-21T03:41:50;19.40;99.90
19106;DHT22;9685;54.338;18.672;2023-08-21T03:44:17;19.40;99.90
19106;DHT22;9685;54.338;18.672;2023-08-21T03:46:44;19.40;99.90
19106;DHT22;9685;54.338;18.672;2023-08-21T03:49:11;19.40;99.90
19106;DHT22;9685;54.338;18.672;2023-08-21T03:51:38;19.40;99.90
19106;DHT22;9685;54.338;18.672;2023-08-21T03:54:05;19.30;99.90
19106;DHT22;9685;54.338;18.672;2023-08-21T03:56:32;19.30;99.90
19106;DHT22;9685;54.338;18.672;2023-08-21T03:59:00;19.30;99.90
19106;DHT22;9685;54.338;18.672;2023-08-21T04:01:27;19.30;99.90
19106;DHT22;9685;54.338;18.672;2023-08-21T04:03:54;19.30;99.90
19106;DHT22;9685;54.338;18.672;2023-08-21T04:06:21;19.30;99.90
19106;DHT22;9685;54.338;18.672;2023-08-21T04:08:48;19.40;99.90
19106;DHT22;9685;54.338;18.672;2023-08-21T04:11:15;19.30;99.90
19106;DHT22;9685;54.338;18.672;2023-08-21T04:13:42;19.30;99.90
19106;DHT22;9685;54.338;18.672;2023-08-21T04:16:10;19.40;99.90
19106;DHT22;9685;54.338;18.672;2023-08-21T04:18:38;19.40;99.90
19106;DHT22;9685;54.338;18.672;2023-08-21T04:21:05;19.40;99.90
19106;DHT22;9685;54.338;18.672;2023-08-21T04:23:32;19.40;99.90
19106;DHT22;9685;54.338;18.672;2023-08-21T04:26:00;19.50;99.90
19106;DHT22;9685;54.338;18.672;2023-08-21T04:28:29;19.50;99.90
19106;DHT22;9685;54.338;18.672;2023-08-21T04:30:57;19.50;99.90
19106;DHT22;9685;54.338;18.672;2023-08-21T04:33:27;19.60;99.90
19106;DHT22;9685;54.338;18.672;2023-08-21T04:35:54;19.60;99.90
19106;DHT22;9685;54.338;18.672;2023-08-21T04:38:21;19.60;99.90
19106;DHT22;9685;54.338;18.672;2023-08-21T04:40:48;19.60;99.90
19106;DHT22;9685;54.338;18.672;2023-08-21T04:43:15;19.60;99.90
19106;DHT22;9685;54.338;18.672;2023-08-21T04:45:47;19.60;99.90
19106;DHT22;9685;54.338;18.672;2023-08-21T04:48:15;19.60;99.90
19106;DHT22;9685;54.338;18.672;2023-08-21T04:50:43;19.60;99.90
19106;DHT22;9685;54.338;18.672;2023-08-21T04:53:10;19.70;99.90
19106;DHT22;9685;54.338;18.672;2023-08-21T04:55:37;19.70;99.90
19106;DHT22;9685;54.338;18.672;2023-08-21T04:58:06;19.80;99.90
19106;DHT22;9685;54.338;18.672;2023-08-21T05:00:32;19.80;99.90
19106;DHT22;9685;54.338;18.672;2023-08-21T05:02:59;19.90;99.90
19106;DHT22;9685;54.338;18.672;2023-08-21T05:05:26;19.90;99.90
19106;DHT22;9685;54.338;18.672;2023-08-21T05:07:55;19.80;99.90
19106;DHT22;9685;54.338;18.672;2023-08-21T05:10:22;19.90;99.90
19106;DHT22;9685;54.338;18.672;2023-08-21T05:12:48;20.00;99.90
19106;DHT22;9685;54.338;18.672;2023-08-21T05:15:16;20.00;99.90
19106;DHT22;9685;54.338;18.672;2023-08-21T05:17:42;20.00;99.90
19106;DHT22;9685;54.338;18.672;2023-08-21T05:20:10;20.00;99.90
19106;DHT22;9685;54.338;18.672;2023-08-21T05:22:40;20.10;99.90
19106;DHT22;9685;54.338;18.672;2023-08-21T05:25:09;20.10;99.90
19106;DHT22;9685;54.338;18.672;2023-08-21T05:27:36;20.20;99.90
19106;DHT22;9685;54.338;18.672;2023-08-21T05:30:04;20.40;99.90
19106;DHT22;9685;54.338;18.672;2023-08-21T05:32:31;20.50;99.90
19106;DHT22;9685;54.338;18.672;2023-08-21T05:34:58;20.40;99.90
19106;DHT22;9685;54.338;18.672;2023-08-21T05:37:25;20.40;99.90
19106;DHT22;9685;54.338;18.672;2023-08-21T05:39:52;20.50;99.90
19106;DHT22;9685;54.338;18.672;2023-08-21T05:42:21;20.60;99.90
19106;DHT22;9685;54.338;18.672;2023-08-21T05:44:48;20.60;99.90
19106;DHT22;9685;54.338;18.672;2023-08-21T05:47:14;20.60;99.90
19106;DHT22;9685;54.338;18.672;2023-08-21T05:49:41;20.70;99.90
19106;DHT22;9685;54.338;18.672;2023-08-21T05:52:09;20.80;99.90
19106;DHT22;9685;54.338;18.672;2023-08-21T05:54:36;20.70;99.90
19106;DHT22;9685;54.338;18.672;2023-08-21T05:57:03;20.70;99.90
19106;DHT22;9685;54.338;18.672;2023-08-21T05:59:32;20.70;99.90
19106;DHT22;9685;54.338;18.672;2023-08-21T06:01:59;20.80;99.90
19106;DHT22;9685;54.338;18.672;2023-08-21T06:04:26;20.70;99.90
19106;DHT22;9685;54.338;18.672;2023-08-21T06:06:53;20.70;99.90
19106;DHT22;9685;54.338;18.672;2023-08-21T06:09:20;20.80;99.90
19106;DHT22;9685;54.338;18.672;2023-08-21T06:11:47;21.00;99.90
19106;DHT22;9685;54.338;18.672;2023-08-21T06:14:14;21.20;99.90
19106;DHT22;9685;54.338;18.672;2023-08-21T06:16:42;21.30;99.90
19106;DHT22;9685;54.338;18.672;2023-08-21T06:19:10;21.30;99.90
19106;DHT22;9685;54.338;18.672;2023-08-21T06:21:37;21.30;99.90
19106;DHT22;9685;54.338;18.672;2023-08-21T06:24:04;21.30;99.90
19106;DHT22;9685;54.338;18.672;2023-08-21T06:26:31;21.40;99.90
19106;DHT22;9685;54.338;18.672;2023-08-21T06:28:58;21.50;99.90
19106;DHT22;9685;54.338;18.672;2023-08-21T06:31:25;21.50;99.90
19106;DHT22;9685;54.338;18.672;2023-08-21T06:33:53;21.60;99.90
19106;DHT22;9685;54.338;18.672;2023-08-21T06:36:20;21.60;99.90
19106;DHT22;9685;54.338;18.672;2023-08-21T06:38:47;21.60;99.90
19106;DHT22;9685;54.338;18.672;2023-08-21T06:41:14;21.50;99.90
19106;DHT22;9685;54.338;18.672;2023-08-21T06:43:41;21.50;99.90
19106;DHT22;9685;54.338;18.672;2023-08-21T06:46:08;21.40;99.90
19106;DHT22;9685;54.338;18.672;2023-08-21T06:48:38;21.60;99.90
19106;DHT22;9685;54.338;18.672;2023-08-21T06:51:06;21.80;99.90
19106;DHT22;9685;54.338;18.672;2023-08-21T06:53:34;21.90;99.90
19106;DHT22;9685;54.338;18.672;2023-08-21T06:56:01;22.00;99.90
19106;DHT22;9685;54.338;18.672;2023-08-21T06:58:28;21.90;99.90
19106;DHT22;9685;54.338;18.672;2023-08-21T07:00:55;21.90;99.90
19106;DHT22;9685;54.338;18.672;2023-08-21T07:03:22;21.90;99.90
19106;DHT22;9685;54.338;18.672;2023-08-21T07:05:53;21.90;99.90
19106;DHT22;9685;54.338;18.672;2023-08-21T07:08:23;22.00;99.90
19106;DHT22;9685;54.338;18.672;2023-08-21T07:10:50;22.00;99.90
19106;DHT22;9685;54.338;18.672;2023-08-21T07:13:18;22.00;99.90
19106;DHT22;9685;54.338;18.672;2023-08-21T07:15:45;22.00;99.90
19106;DHT22;9685;54.338;18.672;2023-08-21T07:18:13;22.10;99.90
19106;DHT22;9685;54.338;18.672;2023-08-21T07:20:39;22.30;99.90
19106;DHT22;9685;54.338;18.672;2023-08-21T07:23:06;22.30;99.90
19106;DHT22;9685;54.338;18.672;2023-08-21T07:25:35;22.30;99.90
19106;DHT22;9685;54.338;18.672;2023-08-21T07:28:02;22.20;99.90
19106;DHT22;9685;54.338;18.672;2023-08-21T07:30:29;22.20;99.90
19106;DHT22;9685;54.338;18.672;2023-08-21T07:32:56;22.30;99.90
19106;DHT22;9685;54.338;18.672;2023-08-21T07:35:23;22.40;99.90
19106;DHT22;9685;54.338;18.672;2023-08-21T07:37:50;22.60;99.90
19106;DHT22;9685;54.338;18.672;2023-08-21T07:40:17;22.60;99.90
19106;DHT22;9685;54.338;18.672;2023-08-21T07:42:45;22.70;99.90
19106;DHT22;9685;54.338;18.672;2023-08-21T07:45:12;22.80;99.90
19106;DHT22;9685;54.338;18.672;2023-08-21T07:47:39;22.90;99.90
19106;DHT22;9685;54.338;18.672;2023-08-21T07:50:07;23.10;99.90
19106;DHT22;9685;54.338;18.672;2023-08-21T07:52:34;23.00;99.90
19106;DHT22;9685;54.338;18.672;2023-08-21T07:55:02;23.00;99.90
19106;DHT22;9685;54.338;18.672;2023-08-21T07:57:29;23.10;99.90
19106;DHT22;9685;54.338;18.672;2023-08-21T07:59:57;23.20;99.90
19106;DHT22;9685;54.338;18.672;2023-08-21T08:02:24;23.30;99.90
19106;DHT22;9685;54.338;18.672;2023-08-21T08:04:51;23.30;99.90
19106;DHT22;9685;54.338;18.672;2023-08-21T08:07:19;23.40;99.90
19106;DHT22;9685;54.338;18.672;2023-08-21T08:09:46;23.40;99.90
19106;DHT22;9685;54.338;18.672;2023-08-21T08:12:13;23.60;99.90
19106;DHT22;9685;54.338;18.672;2023-08-21T08:14:40;23.60;99.90
19106;DHT22;9685;54.338;18.672;2023-08-21T08:17:09;23.80;99.90
19106;DHT22;9685;54.338;18.672;2023-08-21T08:19:36;23.90;94.90
19106;DHT22;9685;54.338;18.672;2023-08-21T08:22:03;24.00;95.80
19106;DHT22;9685;54.338;18.672;2023-08-21T08:24:30;24.10;93.60
19106;DHT22;9685;54.338;18.672;2023-08-21T08:26:56;23.90;91.80
19106;DHT22;9685;54.338;18.672;2023-08-21T08:29:23;24.00;90.70
19106;DHT22;9685;54.338;18.672;2023-08-21T08:31:50;23.80;88.50
19106;DHT22;9685;54.338;18.672;2023-08-21T08:34:19;24.00;87.30
19106;DHT22;9685;54.338;18.672;2023-08-21T08:36:47;24.00;78.80
19106;DHT22;9685;54.338;18.672;2023-08-21T08:39:13;24.30;81.80
19106;DHT22;9685;54.338;18.672;2023-08-21T08:41:47;24.50;81.30
19106;DHT22;9685;54.338;18.672;2023-08-21T08:44:16;24.50;81.30
19106;DHT22;9685;54.338;18.672;2023-08-21T08:46:43;24.40;77.00
19106;DHT22;9685;54.338;18.672;2023-08-21T08:49:11;24.40;77.20
19106;DHT22;9685;54.338;18.672;2023-08-21T08:51:40;24.40;79.80
19106;DHT22;9685;54.338;18.672;2023-08-21T08:54:09;24.50;80.90
19106;DHT22;9685;54.338;18.672;2023-08-21T08:56:37;24.50;79.40
19106;DHT22;9685;54.338;18.672;2023-08-21T08:59:07;24.50;79.60
19106;DHT22;9685;54.338;18.672;2023-08-21T09:01:34;24.60;82.20
19106;DHT22;9685;54.338;18.672;2023-08-21T09:04:03;24.70;76.30
19106;DHT22;9685;54.338;18.672;2023-08-21T09:06:32;24.80;74.00
19106;DHT22;9685;54.338;18.672;2023-08-21T09:09:00;25.00;74.80
19106;DHT22;9685;54.338;18.672;2023-08-21T09:11:27;25.10;70.30
19106;DHT22;9685;54.338;18.672;2023-08-21T09:13:55;25.00;67.60
19106;DHT22;9685;54.338;18.672;2023-08-21T09:16:25;25.10;70.00
19106;DHT22;9685;54.338;18.672;2023-08-21T09:18:53;25.30;67.60
19106;DHT22;9685;54.338;18.672;2023-08-21T09:21:23;25.50;66.20
19106;DHT22;9685;54.338;18.672;2023-08-21T09:23:56;25.60;66.40
19106;DHT22;9685;54.338;18.672;2023-08-21T09:26:25;25.90;66.10
19106;DHT22;9685;54.338;18.672;2023-08-21T09:28:53;25.80;62.10
19106;DHT22;9685;54.338;18.672;2023-08-21T09:31:23;25.60;62.40
19106;DHT22;9685;54.338;18.672;2023-08-21T09:33:55;25.70;62.90
19106;DHT22;9685;54.338;18.672;2023-08-21T09:36:23;25.60;60.50
19106;DHT22;9685;54.338;18.672;2023-08-21T09:38:51;25.80;62.90
19106;DHT22;9685;54.338;18.672;2023-08-21T09:41:19;26.00;62.30
19106;DHT22;9685;54.338;18.672;2023-08-21T09:43:48;26.20;62.00
19106;DHT22;9685;54.338;18.672;2023-08-21T09:46:15;26.30;61.00
19106;DHT22;9685;54.338;18.672;2023-08-21T09:48:44;26.50;60.30
19106;DHT22;9685;54.338;18.672;2023-08-21T09:51:12;26.60;61.10
19106;DHT22;9685;54.338;18.672;2023-08-21T09:53:40;26.60;58.10
19106;DHT22;9685;54.338;18.672;2023-08-21T09:56:07;26.80;58.60
19106;DHT22;9685;54.338;18.672;2023-08-21T09:58:36;27.00;57.00
19106;DHT22;9685;54.338;18.672;2023-08-21T10:01:07;27.00;56.00
19106;DHT22;9685;54.338;18.672;2023-08-21T10:03:38;26.80;55.30
19106;DHT22;9685;54.338;18.672;2023-08-21T10:06:06;26.60;52.50
19106;DHT22;9685;54.338;18.672;2023-08-21T10:08:37;26.50;54.20
19106;DHT22;9685;54.338;18.672;2023-08-21T10:11:06;26.80;54.40
19106;DHT22;9685;54.338;18.672;2023-08-21T10:13:36;27.00;54.30
19106;DHT22;9685;54.338;18.672;2023-08-21T10:16:05;27.00;53.80
19106;DHT22;9685;54.338;18.672;2023-08-21T10:18:33;27.00;52.90
19106;DHT22;9685;54.338;18.672;2023-08-21T10:21:12;27.10;51.60
19106;DHT22;9685;54.338;18.672;2023-08-21T10:23:40;27.40;51.60
19106;DHT22;9685;54.338;18.672;2023-08-21T10:26:10;27.70;53.00
19106;DHT22;9685;54.338;18.672;2023-08-21T10:28:58;28.20;52.90
19106;DHT22;9685;54.338;18.672;2023-08-21T10:31:33;28.60;54.90
19106;DHT22;9685;54.338;18.672;2023-08-21T10:34:01;28.60;52.00
19106;DHT22;9685;54.338;18.672;2023-08-21T10:39:26;28.70;50.80
19106;DHT22;9685;54.338;18.672;2023-08-21T10:41:57;28.50;50.70
19106;DHT22;9685;54.338;18.672;2023-08-21T10:44:46;28.60;49.20
19106;DHT22;9685;54.338;18.672;2023-08-21T10:47:18;29.00;49.80
19106;DHT22;9685;54.338;18.672;2023-08-21T10:49:46;28.80;49.30
19106;DHT22;9685;54.338;18.672;2023-08-21T10:52:14;28.70;47.60
19106;DHT22;9685;54.338;18.672;2023-08-21T10:54:48;28.90;46.60
19106;DHT22;9685;54.338;18.672;2023-08-21T10:57:16;29.30;49.20
19106;DHT22;9685;54.338;18.672;2023-08-21T10:59:56;29.60;48.30
19106;DHT22;9685;54.338;18.672;2023-08-21T11:02:26;29.60;49.20
19106;DHT22;9685;54.338;18.672;2023-08-21T11:04:54;29.40;46.90
19106;DHT22;9685;54.338;18.672;2023-08-21T11:07:21;29.10;44.70
19106;DHT22;9685;54.338;18.672;2023-08-21T11:09:48;28.80;43.10
19106;DHT22;9685;54.338;18.672;2023-08-21T11:12:16;28.60;42.70
19106;DHT22;9685;54.338;18.672;2023-08-21T11:14:43;28.30;41.70
19106;DHT22;9685;54.338;18.672;2023-08-21T11:17:11;28.20;41.60
19106;DHT22;9685;54.338;18.672;2023-08-21T11:19:40;28.20;40.30
19106;DHT22;9685;54.338;18.672;2023-08-21T11:22:07;28.70;42.20
19106;DHT22;9685;54.338;18.672;2023-08-21T11:24:42;29.20;43.30
19106;DHT22;9685;54.338;18.672;2023-08-21T11:27:11;29.50;44.60
19106;DHT22;9685;54.338;18.672;2023-08-21T11:29:40;29.70;44.80
19106;DHT22;9685;54.338;18.672;2023-08-21T11:32:09;29.90;44.70
19106;DHT22;9685;54.338;18.672;2023-08-21T11:34:36;29.60;43.70
19106;DHT22;9685;54.338;18.672;2023-08-21T11:37:05;29.40;41.70
19106;DHT22;9685;54.338;18.672;2023-08-21T11:39:42;29.40;42.20
19106;DHT22;9685;54.338;18.672;2023-08-21T11:42:11;29.20;40.90
19106;DHT22;9685;54.338;18.672;2023-08-21T11:44:46;28.80;39.00
19106;DHT22;9685;54.338;18.672;2023-08-21T11:47:15;29.20;40.90
19106;DHT22;9685;54.338;18.672;2023-08-21T11:49:43;30.00;42.70
19106;DHT22;9685;54.338;18.672;2023-08-21T11:52:14;30.80;45.40
19106;DHT22;9685;54.338;18.672;2023-08-21T11:54:48;30.90;44.60
19106;DHT22;9685;54.338;18.672;2023-08-21T11:57:15;30.80;42.90
19106;DHT22;9685;54.338;18.672;2023-08-21T11:59:42;30.60;42.00
19106;DHT22;9685;54.338;18.672;2023-08-21T12:02:16;30.60;42.10
19106;DHT22;9685;54.338;18.672;2023-08-21T12:04:43;30.60;41.20
19106;DHT22;9685;54.338;18.672;2023-08-21T12:07:11;30.30;38.90
19106;DHT22;9685;54.338;18.672;2023-08-21T12:09:45;29.80;38.50
19106;DHT22;9685;54.338;18.672;2023-08-21T12:12:12;29.80;38.30
19106;DHT22;9685;54.338;18.672;2023-08-21T12:14:39;29.60;36.00
19106;DHT22;9685;54.338;18.672;2023-08-21T12:17:06;29.80;36.70
19106;DHT22;9685;54.338;18.672;2023-08-21T12:19:33;30.00;36.80
19106;DHT22;9685;54.338;18.672;2023-08-21T12:22:00;30.30;36.90
19106;DHT22;9685;54.338;18.672;2023-08-21T12:24:27;30.80;39.30
19106;DHT22;9685;54.338;18.672;2023-08-21T12:26:56;31.20;40.00
19106;DHT22;9685;54.338;18.672;2023-08-21T12:29:23;30.90;38.10
19106;DHT22;9685;54.338;18.672;2023-08-21T12:31:50;30.80;37.30
19106;DHT22;9685;54.338;18.672;2023-08-21T12:34:19;30.90;37.10
19106;DHT22;9685;54.338;18.672;2023-08-21T12:36:46;31.10;38.30
19106;DHT22;9685;54.338;18.672;2023-08-21T12:39:13;31.70;39.50
19106;DHT22;9685;54.338;18.672;2023-08-21T12:41:41;32.20;40.50
19106;DHT22;9685;54.338;18.672;2023-08-21T12:44:10;32.50;41.40
19106;DHT22;9685;54.338;18.672;2023-08-21T12:46:37;32.40;39.80
19106;DHT22;9685;54.338;18.672;2023-08-21T12:49:04;32.20;38.70
19106;DHT22;9685;54.338;18.672;2023-08-21T12:51:31;32.80;40.00
19106;DHT22;9685;54.338;18.672;2023-08-21T12:53:58;32.90;39.80
19106;DHT22;9685;54.338;18.672;2023-08-21T12:56:25;33.00;39.30
19106;DHT22;9685;54.338;18.672;2023-08-21T12:58:52;32.50;36.90
19106;DHT22;9685;54.338;18.672;2023-08-21T13:01:20;32.10;35.20
19106;DHT22;9685;54.338;18.672;2023-08-21T13:03:47;31.90;33.30
19106;DHT22;9685;54.338;18.672;2023-08-21T13:06:14;32.10;34.40
19106;DHT22;9685;54.338;18.672;2023-08-21T13:08:41;32.30;35.30
19106;DHT22;9685;54.338;18.672;2023-08-21T13:11:08;32.80;37.00
19106;DHT22;9685;54.338;18.672;2023-08-21T13:13:35;32.80;35.30
19106;DHT22;9685;54.338;18.672;2023-08-21T13:16:03;32.70;35.50
19106;DHT22;9685;54.338;18.672;2023-08-21T13:18:31;32.90;36.10
19106;DHT22;9685;54.338;18.672;2023-08-21T13:20:58;32.90;35.40
19106;DHT22;9685;54.338;18.672;2023-08-21T13:23:25;32.90;34.80
19106;DHT22;9685;54.338;18.672;2023-08-21T13:25:52;32.80;34.20
19106;DHT22;9685;54.338;18.672;2023-08-21T13:28:19;31.90;31.20
19106;DHT22;9685;54.338;18.672;2023-08-21T13:30:46;31.30;29.00
19106;DHT22;9685;54.338;18.672;2023-08-21T13:33:14;31.10;28.00
19106;DHT22;9685;54.338;18.672;2023-08-21T13:35:45;30.70;27.50
19106;DHT22;9685;54.338;18.672;2023-08-21T13:38:12;30.10;24.70
19106;DHT22;9685;54.338;18.672;2023-08-21T13:40:40;29.90;24.50
19106;DHT22;9685;54.338;18.672;2023-08-21T13:43:07;29.70;23.30
19106;DHT22;9685;54.338;18.672;2023-08-21T13:45:35;29.90;24.90
19106;DHT22;9685;54.338;18.672;2023-08-21T13:48:03;29.80;24.10
19106;DHT22;9685;54.338;18.672;2023-08-21T13:50:30;29.60;23.40
19106;DHT22;9685;54.338;18.672;2023-08-21T13:52:59;30.00;24.60
19106;DHT22;9685;54.338;18.672;2023-08-21T13:55:26;29.90;23.90
19106;DHT22;9685;54.338;18.672;2023-08-21T13:57:53;29.80;23.50
19106;DHT22;9685;54.338;18.672;2023-08-21T14:00:21;29.60;23.30
19106;DHT22;9685;54.338;18.672;2023-08-21T14:02:49;29.50;23.00
19106;DHT22;9685;54.338;18.672;2023-08-21T14:05:16;29.30;22.60
19106;DHT22;9685;54.338;18.672;2023-08-21T14:07:44;29.30;22.30
19106;DHT22;9685;54.338;18.672;2023-08-21T14:10:13;29.40;22.60
19106;DHT22;9685;54.338;18.672;2023-08-21T14:12:40;29.10;22.30
19106;DHT22;9685;54.338;18.672;2023-08-21T14:15:08;29.00;21.20
19106;DHT22;9685;54.338;18.672;2023-08-21T14:17:35;28.90;21.00
19106;DHT22;9685;54.338;18.672;2023-08-21T14:20:03;28.80;20.60
19106;DHT22;9685;54.338;18.672;2023-08-21T14:22:30;28.70;21.60
19106;DHT22;9685;54.338;18.672;2023-08-21T14:24:57;28.80;21.30
19106;DHT22;9685;54.338;18.672;2023-08-21T14:27:25;29.00;21.00
19106;DHT22;9685;54.338;18.672;2023-08-21T14:29:52;29.20;38.90
19106;DHT22;9685;54.338;18.672;2023-08-21T14:32:19;29.50;22.40
19106;DHT22;9685;54.338;18.672;2023-08-21T14:34:46;29.60;22.80
19106;DHT22;9685;54.338;18.672;2023-08-21T14:37:13;29.70;21.70
19106;DHT22;9685;54.338;18.672;2023-08-21T14:39:41;29.90;22.70
19106;DHT22;9685;54.338;18.672;2023-08-21T14:42:08;30.10;22.80
19106;DHT22;9685;54.338;18.672;2023-08-21T14:44:37;30.00;22.50
19106;DHT22;9685;54.338;18.672;2023-08-21T14:47:04;30.00;22.70
19106;DHT22;9685;54.338;18.672;2023-08-21T14:49:31;29.80;21.90
19106;DHT22;9685;54.338;18.672;2023-08-21T14:51:58;29.70;21.60
19106;DHT22;9685;54.338;18.672;2023-08-21T14:54:25;29.60;21.40
19106;DHT22;9685;54.338;18.672;2023-08-21T14:56:52;29.60;21.60
19106;DHT22;9685;54.338;18.672;2023-08-21T14:59:19;29.70;21.20
19106;DHT22;9685;54.338;18.672;2023-08-21T15:01:47;29.70;21.80
19106;DHT22;9685;54.338;18.672;2023-08-21T15:04:14;30.10;21.60
19106;DHT22;9685;54.338;18.672;2023-08-21T15:06:41;30.50;23.50
19106;DHT22;9685;54.338;18.672;2023-08-21T15:09:08;30.90;25.00
19106;DHT22;9685;54.338;18.672;2023-08-21T15:11:35;31.30;24.60
19106;DHT22;9685;54.338;18.672;2023-08-21T15:14:02;31.60;25.40
19106;DHT22;9685;54.338;18.672;2023-08-21T15:16:29;31.60;25.20
19106;DHT22;9685;54.338;18.672;2023-08-21T15:18:58;31.50;25.20
19106;DHT22;9685;54.338;18.672;2023-08-21T15:21:25;31.20;23.90
19106;DHT22;9685;54.338;18.672;2023-08-21T15:23:52;31.30;24.20
19106;DHT22;9685;54.338;18.672;2023-08-21T15:26:19;30.80;21.50
19106;DHT22;9685;54.338;18.672;2023-08-21T15:28:46;30.10;20.00
19106;DHT22;9685;54.338;18.672;2023-08-21T15:31:13;29.80;19.80
19106;DHT22;9685;54.338;18.672;2023-08-21T15:33:40;29.50;18.80
19106;DHT22;9685;54.338;18.672;2023-08-21T15:36:08;29.40;19.00
19106;DHT22;9685;54.338;18.672;2023-08-21T15:38:35;29.30;18.40